createdAt,value
2022-11-27T00:00:03.016Z,87
2022-11-27T00:03:03.323Z,87
2022-11-27T00:06:02.954Z,87
2022-11-27T00:09:02.908Z,86.9
2022-11-27T00:12:02.960Z,86.9
2022-11-27T00:15:02.929Z,86.9
2022-11-27T00:18:02.976Z,86.9
2022-11-27T00:21:02.974Z,86.9
2022-11-27T00:24:02.955Z,86.9
2022-11-27T00:27:02.943Z,86.9
2022-11-27T00:30:02.937Z,86.9
2022-11-27T00:33:02.946Z,86.7
2022-11-27T00:36:03.004Z,86.7
2022-11-27T00:39:02.997Z,86.7
2022-11-27T00:42:02.986Z,86.7
2022-11-27T00:45:02.995Z,86.5
2022-11-27T00:48:02.916Z,86.5
2022-11-27T00:51:02.996Z,86.5
2022-11-27T00:54:02.985Z,86.5
2022-11-27T00:57:02.923Z,86.5
2022-11-27T01:00:03.119Z,86.5
2022-11-27T01:03:03.184Z,86.5
2022-11-27T01:06:03.218Z,86.5
2022-11-27T01:09:04.027Z,86.5
2022-11-27T01:12:03.424Z,86.5
2022-11-27T01:15:03.029Z,86.5
2022-11-27T01:18:02.945Z,86.5
2022-11-27T01:21:04.099Z,86.5
2022-11-27T01:24:08.719Z,86.5
2022-11-27T01:27:03.312Z,86.5
2022-11-27T01:30:04.604Z,86.5
2022-11-27T01:33:02.968Z,86.5
2022-11-27T01:36:02.993Z,86.5
2022-11-27T01:39:03.086Z,86.5
2022-11-27T01:42:03.148Z,86.5
2022-11-27T01:45:03.393Z,86.7
2022-11-27T01:48:02.960Z,86.7
2022-11-27T01:51:03.207Z,86.7
2022-11-27T01:54:03.024Z,86.7
2022-11-27T01:57:03.063Z,86.7
2022-11-27T02:00:03.128Z,86.7
2022-11-27T02:03:03.170Z,86.7
2022-11-27T02:06:03.387Z,86.7
2022-11-27T02:09:02.961Z,86.8
2022-11-27T02:12:02.915Z,86.8
2022-11-27T02:15:02.968Z,86.8
2022-11-27T02:18:02.987Z,86.8
2022-11-27T02:21:03.022Z,86.8
2022-11-27T02:24:03.059Z,86.9
2022-11-27T02:27:03.006Z,86.9
2022-11-27T02:30:03.016Z,86.9
2022-11-27T02:33:03.003Z,86.9
2022-11-27T02:36:02.990Z,86.9
2022-11-27T02:39:02.950Z,86.9
2022-11-27T02:42:03.511Z,86.9
2022-11-27T02:45:02.936Z,86.9
2022-11-27T02:48:03.108Z,86.9
2022-11-27T02:51:02.939Z,86.7
2022-11-27T02:54:03.156Z,86.7
2022-11-27T02:57:02.995Z,86.7
2022-11-27T03:00:03.003Z,86.7
2022-11-27T03:03:03.375Z,86.7
2022-11-27T03:06:02.950Z,86.7
2022-11-27T03:09:03.007Z,86.7
2022-11-27T03:12:03.010Z,86.7
2022-11-27T03:15:04.075Z,86.7
2022-11-27T03:18:02.996Z,86.5
2022-11-27T03:21:02.946Z,86.5
2022-11-27T03:24:03.058Z,86.5
2022-11-27T03:27:02.938Z,86.5
2022-11-27T03:30:03.075Z,86.5
2022-11-27T03:33:03.031Z,86.5
2022-11-27T03:36:02.973Z,86.5
2022-11-27T03:39:02.952Z,86.5
2022-11-27T03:42:02.945Z,86.5
2022-11-27T03:45:02.986Z,86.5
2022-11-27T03:48:03.234Z,86.5
2022-11-27T03:51:02.915Z,86.5
2022-11-27T03:54:03.050Z,86.5
2022-11-27T03:57:02.913Z,86.5
2022-11-27T04:00:02.981Z,86.5
2022-11-27T04:03:02.945Z,86.5
2022-11-27T04:06:02.960Z,86.8
2022-11-27T04:09:02.968Z,86.8
2022-11-27T04:12:02.961Z,86.8
2022-11-27T04:15:02.968Z,87
2022-11-27T04:18:02.979Z,87
2022-11-27T04:21:02.960Z,87
2022-11-27T04:24:02.937Z,87
2022-11-27T04:27:03.037Z,87
2022-11-27T04:30:02.976Z,87
2022-11-27T04:33:02.958Z,87
2022-11-27T04:36:02.961Z,87
2022-11-27T04:39:02.887Z,87
2022-11-27T04:42:02.916Z,87
2022-11-27T04:45:02.957Z,87
2022-11-27T04:48:02.906Z,87
2022-11-27T04:51:02.923Z,87
2022-11-27T04:54:02.979Z,87
2022-11-27T04:57:02.937Z,87
2022-11-27T05:00:03.017Z,87
2022-11-27T05:03:03.321Z,87
2022-11-27T05:06:02.977Z,87.6
2022-11-27T05:09:02.942Z,87.6
2022-11-27T05:12:02.903Z,87.6
2022-11-27T05:15:07.060Z,87.6
2022-11-27T05:18:03.085Z,87.6
2022-11-27T05:21:02.965Z,87.6
2022-11-27T05:24:03.091Z,87.6
2022-11-27T05:27:02.889Z,87.6
2022-11-27T05:30:02.961Z,87.6
2022-11-27T05:33:02.975Z,87.6
2022-11-27T05:36:02.956Z,87.7
2022-11-27T05:39:02.880Z,87.7
2022-11-27T05:42:03.006Z,87.7
2022-11-27T05:45:03.027Z,87.7
2022-11-27T05:48:02.973Z,87.7
2022-11-27T05:51:02.909Z,87.7
2022-11-27T05:54:02.945Z,87.7
2022-11-27T05:57:02.953Z,87.9
2022-11-27T06:00:03.003Z,87.9
2022-11-27T06:03:03.387Z,87.9
2022-11-27T06:06:02.979Z,87.9
2022-11-27T06:09:04.823Z,87.9
2022-11-27T06:12:03.018Z,87.9
2022-11-27T06:15:02.918Z,87.9
2022-11-27T06:18:02.955Z,87.9
2022-11-27T06:21:02.936Z,87.9
2022-11-27T06:24:02.897Z,87.9
2022-11-27T06:27:03.010Z,87.9
2022-11-27T06:30:02.939Z,87.9
2022-11-27T06:33:02.946Z,88.6
2022-11-27T06:36:02.928Z,88.6
2022-11-27T06:39:02.962Z,88.6
2022-11-27T06:42:02.916Z,88.6
2022-11-27T06:45:02.904Z,88.6
2022-11-27T06:48:03.205Z,88.6
2022-11-27T06:51:02.956Z,88.8
2022-11-27T06:54:02.919Z,88.8
2022-11-27T06:57:02.952Z,88.8
2022-11-27T07:00:03.122Z,88.8
2022-11-27T07:03:03.005Z,88.8
2022-11-27T07:06:02.961Z,88.8
2022-11-27T07:09:02.959Z,88.8
2022-11-27T07:12:03.010Z,88.8
2022-11-27T07:15:06.855Z,88.8
2022-11-27T07:18:02.987Z,88.8
2022-11-27T07:21:03.004Z,88.8
2022-11-27T07:24:03.045Z,88.8
2022-11-27T07:27:03.042Z,88.8
2022-11-27T07:30:02.996Z,88.8
2022-11-27T07:33:03.036Z,88.8
2022-11-27T07:36:02.966Z,88.8
2022-11-27T07:39:03.013Z,88.8
2022-11-27T07:42:40.254Z,88.8
2022-11-27T07:45:03.073Z,88.8
2022-11-27T07:48:02.994Z,88.8
2022-11-27T07:51:02.965Z,88.8
2022-11-27T07:54:03.019Z,89.5
2022-11-27T07:57:03.014Z,89.5
2022-11-27T08:00:03.073Z,89.5
2022-11-27T08:03:02.999Z,89.5
2022-11-27T08:06:03.024Z,89.5
2022-11-27T08:09:03.013Z,89.5
2022-11-27T08:12:03.086Z,89.5
2022-11-27T08:15:03.022Z,89.5
2022-11-27T08:18:03.092Z,89.5
2022-11-27T08:21:02.959Z,89.5
2022-11-27T08:24:02.974Z,91.5
2022-11-27T08:27:02.989Z,91.5
2022-11-27T08:30:03.138Z,91.5
2022-11-27T08:33:03.003Z,91.5
2022-11-27T08:36:03.017Z,91.5
2022-11-27T08:39:02.966Z,91.5
2022-11-27T08:42:02.973Z,91.5
2022-11-27T08:45:03.043Z,91.5
2022-11-27T08:48:02.982Z,91.5
2022-11-27T08:51:03.039Z,91.5
2022-11-27T08:54:03.031Z,92.8
2022-11-27T08:57:02.942Z,92.8
2022-11-27T09:00:03.073Z,92.8
2022-11-27T09:03:02.963Z,92.8
2022-11-27T09:06:02.965Z,92.8
2022-11-27T09:09:02.990Z,92.8
2022-11-27T09:12:03.011Z,92.8
2022-11-27T09:15:03.029Z,92.8
2022-11-27T09:18:03.032Z,92.8
2022-11-27T09:21:02.947Z,92.8
2022-11-27T09:24:03.017Z,93.8
2022-11-27T09:27:02.947Z,93.8
2022-11-27T09:30:03.108Z,93.8
2022-11-27T09:33:02.968Z,93.8
2022-11-27T09:36:02.966Z,93.8
2022-11-27T09:39:02.913Z,93.8
2022-11-27T09:42:02.960Z,94.2
2022-11-27T09:45:03.025Z,94.2
2022-11-27T09:48:02.988Z,94.3
2022-11-27T09:51:03.000Z,94.3
2022-11-27T09:54:03.082Z,94.3
2022-11-27T09:57:03.013Z,94.3
2022-11-27T10:00:02.995Z,94.3
2022-11-27T10:03:03.693Z,94.3
2022-11-27T10:06:02.981Z,94.3
2022-11-27T10:09:03.041Z,94.3
2022-11-27T10:12:03.039Z,94.3
2022-11-27T10:15:02.986Z,94.3
2022-11-27T10:18:03.027Z,94.4
2022-11-27T10:21:03.033Z,94.4
2022-11-27T10:24:03.034Z,94.4
2022-11-27T10:27:03.034Z,94.4
2022-11-27T10:30:03.166Z,94.4
2022-11-27T10:33:03.107Z,94.4
2022-11-27T10:36:02.960Z,94.4
2022-11-27T10:39:03.019Z,94.4
2022-11-27T10:42:02.973Z,94.5
2022-11-27T10:45:02.971Z,94.5
2022-11-27T10:48:02.989Z,94.5
2022-11-27T10:51:02.947Z,94.5
2022-11-27T10:54:02.959Z,94.5
2022-11-27T10:57:02.955Z,94.5
2022-11-27T11:00:02.962Z,94.5
2022-11-27T11:03:03.066Z,94.5
2022-11-27T11:06:25.190Z,94.5
2022-11-27T11:09:03.970Z,94.5
2022-11-27T11:12:02.969Z,94.3
2022-11-27T11:15:03.128Z,94.3
2022-11-27T11:18:03.089Z,94.3
2022-11-27T11:21:02.982Z,94.3
2022-11-27T11:24:02.982Z,94.2
2022-11-27T11:27:02.980Z,94.2
2022-11-27T11:30:03.081Z,94.2
2022-11-27T11:33:02.969Z,94.2
2022-11-27T11:36:03.037Z,94
2022-11-27T11:39:02.965Z,94
2022-11-27T11:42:02.972Z,94
2022-11-27T11:45:02.984Z,94
2022-11-27T11:48:03.039Z,94
2022-11-27T11:51:03.695Z,94
2022-11-27T11:54:03.004Z,93.8
2022-11-27T11:57:03.039Z,93.8
2022-11-27T12:00:03.033Z,93.8
2022-11-27T12:03:02.982Z,93.8
2022-11-27T12:06:02.992Z,93.8
2022-11-27T12:09:03.053Z,93.8
2022-11-27T12:12:02.957Z,93.8
2022-11-27T12:15:03.025Z,93.8
2022-11-27T12:18:03.148Z,93.8
2022-11-27T12:21:02.964Z,93.8
2022-11-27T12:24:03.032Z,93.8
2022-11-27T12:27:02.970Z,93.8
2022-11-27T12:30:03.032Z,93.8
2022-11-27T12:33:02.988Z,93.4
2022-11-27T12:36:03.043Z,93.4
2022-11-27T12:39:02.970Z,93.4
2022-11-27T12:42:03.054Z,93.2
2022-11-27T12:45:02.923Z,93.2
2022-11-27T12:48:03.209Z,93.2
2022-11-27T12:51:02.996Z,93.2
2022-11-27T12:54:03.021Z,93.2
2022-11-27T12:57:02.958Z,93.2
2022-11-27T13:00:03.025Z,93.2
2022-11-27T13:03:03.208Z,92.6
2022-11-27T13:06:03.018Z,92.6
2022-11-27T13:09:02.915Z,92.6
2022-11-27T13:12:02.998Z,92.6
2022-11-27T13:15:03.121Z,92.6
2022-11-27T13:18:03.025Z,92.4
2022-11-27T13:21:02.953Z,92.4
2022-11-27T13:24:02.970Z,92.4
2022-11-27T13:27:02.995Z,92.2
2022-11-27T13:30:03.088Z,92.2
2022-11-27T13:33:02.965Z,92.2
2022-11-27T13:36:02.963Z,92.2
2022-11-27T13:39:03.037Z,92.2
2022-11-27T13:42:03.009Z,92.2
2022-11-27T13:45:03.031Z,92.2
2022-11-27T13:48:03.100Z,92.2
2022-11-27T13:51:02.962Z,91.8
2022-11-27T13:54:02.976Z,91.8
2022-11-27T13:57:02.961Z,91.8
2022-11-27T14:00:03.023Z,91.8
2022-11-27T14:03:03.085Z,91.8
2022-11-27T14:06:02.980Z,91.8
2022-11-27T14:09:02.960Z,91.8
2022-11-27T14:12:03.009Z,91.8
2022-11-27T14:15:03.151Z,91.8
2022-11-27T14:18:03.002Z,91.8
2022-11-27T14:21:02.987Z,91.8
2022-11-27T14:24:03.012Z,91.8
2022-11-27T14:27:03.030Z,91.2
2022-11-27T14:30:02.964Z,91.2
2022-11-27T14:33:03.001Z,91.2
2022-11-27T14:36:02.957Z,91.2
2022-11-27T14:39:03.015Z,91.2
2022-11-27T14:42:03.014Z,91.2
2022-11-27T14:45:03.041Z,91.2
2022-11-27T14:48:03.031Z,91.2
2022-11-27T14:51:02.934Z,91.2
2022-11-27T14:54:03.035Z,91
2022-11-27T14:57:02.958Z,91
2022-11-27T15:00:03.089Z,91
2022-11-27T15:03:03.452Z,91
2022-11-27T15:06:03.029Z,91
2022-11-27T15:09:34.755Z,91
2022-11-27T15:12:02.985Z,91
2022-11-27T15:15:02.952Z,91
2022-11-27T15:18:03.044Z,91.2
2022-11-27T15:21:02.934Z,91.2
2022-11-27T15:24:02.969Z,91.2
2022-11-27T15:27:02.963Z,91
2022-11-27T15:30:03.158Z,91
2022-11-27T15:33:02.961Z,91
2022-11-27T15:36:02.940Z,91
2022-11-27T15:39:02.924Z,91
2022-11-27T15:42:02.973Z,91
2022-11-27T15:45:02.978Z,91
2022-11-27T15:48:02.931Z,91
2022-11-27T15:51:02.980Z,91
2022-11-27T15:54:02.947Z,91
2022-11-27T15:57:02.948Z,91
2022-11-27T16:00:03.084Z,90.8
2022-11-27T16:03:02.912Z,90.8
2022-11-27T16:06:02.953Z,90.8
2022-11-27T16:09:02.959Z,90.8
2022-11-27T16:12:02.944Z,90.8
2022-11-27T16:15:02.971Z,90.8
2022-11-27T16:18:02.922Z,90.6
2022-11-27T16:21:02.929Z,90.6
2022-11-27T16:24:02.996Z,90.6
2022-11-27T16:27:02.931Z,90.6
2022-11-27T16:30:03.020Z,90.6
2022-11-27T16:33:02.967Z,90.6
2022-11-27T16:36:02.966Z,90.6
2022-11-27T16:39:03.038Z,90.6
2022-11-27T16:42:03.182Z,90.6
2022-11-27T16:45:02.968Z,90.3
2022-11-27T16:48:02.991Z,90.3
2022-11-27T16:51:02.944Z,90.3
2022-11-27T16:54:02.956Z,90.3
2022-11-27T16:57:02.962Z,90.3
2022-11-27T17:00:02.995Z,90.3
2022-11-27T17:03:02.926Z,90.3
2022-11-27T17:06:03.034Z,90.3
2022-11-27T17:09:02.982Z,89.8
2022-11-27T17:12:02.978Z,89.8
2022-11-27T17:15:02.960Z,89.8
2022-11-27T17:18:02.904Z,89.8
2022-11-27T17:21:02.997Z,89.8
2022-11-27T17:24:02.969Z,89.8
2022-11-27T17:27:02.974Z,89.5
2022-11-27T17:30:02.957Z,89.5
2022-11-27T17:33:02.973Z,89.5
2022-11-27T17:36:02.950Z,89.5
2022-11-27T17:39:02.969Z,89.5
2022-11-27T17:42:02.976Z,89.5
2022-11-27T17:45:02.951Z,89.5
2022-11-27T17:48:03.010Z,89.5
2022-11-27T17:51:02.929Z,89.5
2022-11-27T17:54:02.965Z,89.5
2022-11-27T17:57:02.923Z,89.5
2022-11-27T18:00:02.963Z,89.2
2022-11-27T18:03:09.612Z,89.2
2022-11-27T18:06:02.985Z,89.2
2022-11-27T18:09:02.916Z,89.2
2022-11-27T18:12:02.996Z,89.2
2022-11-27T18:15:03.973Z,89.2
2022-11-27T18:18:02.923Z,89.2
2022-11-27T18:21:03.017Z,89.2
2022-11-27T18:24:27.284Z,89.2
2022-11-27T18:27:11.425Z,89.2
2022-11-27T18:30:03.005Z,89.2
2022-11-27T18:33:02.925Z,89.2
2022-11-27T18:36:03.757Z,89.2
2022-11-27T18:39:02.916Z,89.2
2022-11-27T18:42:03.027Z,89.2
2022-11-27T18:45:03.070Z,89.4
2022-11-27T18:48:02.988Z,89.4
2022-11-27T18:51:03.194Z,89.4
2022-11-27T18:54:02.943Z,89.4
2022-11-27T18:57:02.922Z,89.4
2022-11-27T19:00:03.016Z,89.6
2022-11-27T19:03:03.131Z,89.6
2022-11-27T19:06:02.940Z,89.6
2022-11-27T19:09:03.028Z,89.6
2022-11-27T19:12:02.927Z,89.6
2022-11-27T19:15:02.955Z,89.6
2022-11-27T19:18:03.053Z,89.6
2022-11-27T19:21:02.948Z,89.6
2022-11-27T19:24:02.976Z,89.6
2022-11-27T19:27:02.930Z,89.6
2022-11-27T19:30:02.890Z,89.6
2022-11-27T19:33:02.941Z,89.6
2022-11-27T19:36:02.950Z,89.6
2022-11-27T19:39:02.953Z,89.6
2022-11-27T19:42:02.957Z,89.6
2022-11-27T19:45:02.940Z,89.6
2022-11-27T19:48:02.952Z,89.6
2022-11-27T19:51:03.024Z,89.6
2022-11-27T19:54:11.837Z,89.6
2022-11-27T19:57:02.939Z,89.6
2022-11-27T20:00:02.970Z,89.6
2022-11-27T20:03:02.883Z,89.6
2022-11-27T20:06:02.990Z,89.6
2022-11-27T20:09:02.974Z,89.6
2022-11-27T20:12:02.960Z,89.6
2022-11-27T20:15:03.065Z,89.6
2022-11-27T20:18:03.020Z,89.6
2022-11-27T20:21:02.939Z,89.6
2022-11-27T20:24:03.012Z,89.6
2022-11-27T20:27:02.920Z,89.6
2022-11-27T20:30:02.998Z,89.6
2022-11-27T20:33:10.192Z,89.6
2022-11-27T20:36:02.997Z,89.6
2022-11-27T20:39:02.952Z,89.6
2022-11-27T20:42:02.970Z,89.6
2022-11-27T20:45:02.943Z,89.4
2022-11-27T20:48:02.927Z,89.4
2022-11-27T20:51:02.926Z,89.4
2022-11-27T20:54:02.984Z,89.4
2022-11-27T20:57:02.949Z,89.4
2022-11-27T21:00:03.043Z,89.4
2022-11-27T21:03:02.884Z,89.2
2022-11-27T21:06:02.961Z,89.2
2022-11-27T21:09:02.947Z,89.2
2022-11-27T21:12:02.958Z,89.2
2022-11-27T21:15:02.956Z,89.2
2022-11-27T21:18:02.965Z,89.2
2022-11-27T21:21:02.932Z,89.2
2022-11-27T21:24:02.918Z,89.2
2022-11-27T21:27:03.148Z,89.2
2022-11-27T21:30:03.011Z,88.9
2022-11-27T21:33:02.952Z,88.9
2022-11-27T21:36:03.030Z,88.9
2022-11-27T21:39:02.966Z,88.9
2022-11-27T21:42:02.924Z,88.9
2022-11-27T21:45:03.150Z,89
2022-11-27T21:48:02.921Z,89
2022-11-27T21:51:02.959Z,89
2022-11-27T21:54:02.999Z,89
2022-11-27T21:57:02.947Z,89
2022-11-27T22:00:02.969Z,88.8
2022-11-27T22:03:03.016Z,88.8
2022-11-27T22:06:02.926Z,88.8
2022-11-27T22:09:02.982Z,88.8
2022-11-27T22:12:02.994Z,88.8
2022-11-27T22:15:02.928Z,88.8
2022-11-27T22:18:02.945Z,88.7
2022-11-27T22:21:02.947Z,88.7
2022-11-27T22:24:02.965Z,88.7
2022-11-27T22:27:02.915Z,88.7
2022-11-27T22:30:02.954Z,88.7
2022-11-27T22:33:02.951Z,88.7
2022-11-27T22:36:02.991Z,88.7
2022-11-27T22:39:03.002Z,88.7
2022-11-27T22:42:02.988Z,88.7
2022-11-27T22:45:02.953Z,88.7
2022-11-27T22:48:02.993Z,88.7
2022-11-27T22:51:02.907Z,88.7
2022-11-27T22:54:02.985Z,88.7
2022-11-27T22:57:02.922Z,88.7
2022-11-27T23:00:03.799Z,88.7
2022-11-27T23:03:03.372Z,88.7
2022-11-27T23:06:02.936Z,88.7
2022-11-27T23:09:03.039Z,88.4
2022-11-27T23:12:02.953Z,88.4
2022-11-27T23:15:03.529Z,88.4
2022-11-27T23:18:02.933Z,88.4
2022-11-27T23:21:02.912Z,88.4
2022-11-27T23:24:02.960Z,88.4
2022-11-27T23:27:02.932Z,88.4
2022-11-27T23:30:03.044Z,88.4
2022-11-27T23:33:02.966Z,88.4
2022-11-27T23:36:02.980Z,88.4
2022-11-27T23:39:02.953Z,87.9
2022-11-27T23:42:03.003Z,87.9
2022-11-27T23:45:02.941Z,87.9
2022-11-27T23:48:02.944Z,87.9
2022-11-27T23:51:02.959Z,87.9
2022-11-27T23:54:02.941Z,87.9
2022-11-27T23:57:02.936Z,87.9
